Airfield :
LOGIN :

Register | Disclaimer

   EN    FR    IT 

 










Legend :    VFR   Marginal VFR   IFR   Intensive IFR   Very Intensive IFR
Visi :
Ceiling :
>= 8 km
>= 3000ft
5 to 8 km
1000 to 3000 ft
1500m to 5 km
500 to 1000 ft
800 to 1500m
200 to 500 ft
< 800m
< 200 ft
Symbols :   Thunderstorms  Fog  Heavy snow  Heavy precipitations  Wind > 20 kt
SIGMETs :     Misc.  Thunderstorms  Icing  Turbulence  Mountain Waves  Volcanic Ashes






- Airport Elevation : 170 ft
- IATA code : KRP


EKKA - Karup

CURRENT METAR :
  • 032020Z AUTO 09003KT 9999 FEW061/// BKN120/// 15/14 Q1004

EXPIRED METARs :
  • 031950Z AUTO 08003KT 9999 SCT061/// SCT083/// BKN120/// 15/14 Q1004
  • 031920Z AUTO 00000KT 9999 BKN055/// 15/14 Q1004
  • 031850Z 28003KT 9999 VCSH FEW045CB BKN070 16/14 Q1004
  • 031820Z 28006KT 240V310 9999 FEW045CB BKN060 16/14 Q1004 RETS
  • 031802Z 34004KT 250V360 8000 -SHRA FEW015 SCT045CB BKN060 16/14 Q1005 RETSRA
  • 031750Z 34006KT 290V360 9999 -TSRA FEW015 SCT045CB BKN060 16/14 Q1004
  • 031730Z 34004KT 9000 -TSRA FEW030 SCT045CB BKN070 17/15 Q1004

TAF TAF EKKA
Valid from the 03 at 18:00 until the 04 at 18:00 UTC


031704Z 0318/0418 11008KT 9999 FEW080 BKN200
TEMPO 0318/0319 -TSRA SCT060CB
TEMPO 0408/0413 12015G28KT 7000 SHRA TSRA SCT060CB
TEMPO 0413/0418 4000 SHRA TSRA BKN050CB



MET'MAP, your aeronautical weather chart ! - Copyright ORBIFLY December 2007 - Disclaimer

ORBIFLY MET'MAP TEAM :

Programming & Development : Alexandra Zaïnal
Concept & original design : Baudouin d'Aumeries
Assistance for programming : Marc-Olivier Méhu
Technical & hardware support : Manuel Goepfert

Contact : metmap@orbifly.com




SOURCES & CREDITS :

   NOAA